Strona główna
METAR-TAF:

METAR-TAF

Lotnisko :

Ishigaki, Japonia

Szerokość geograficzna: 24-20N, Długość geograficzna: 124-10E, wysokość: 6 m

Aktualna obserwacja pogody

Raport powstał 39 minut temu, godzina 22:00 UTC
Wiatr 16 kt od wschodnio-północny wschód
Temperatura 29°C
Wilgotność 94%
Ciśnienie 1002 hPa
Widzialność 10 km lub więcej
Mało chmury na wysokości 1300 ft
Rozproszone chmury na wysokości 4000 ft
przelotny w pobliże

METAR: ROIG 162200Z 07016KT 9999 VCSH FEW013 SCT040 29/28 Q1002

czas: 07:39 (22:39 UTC)

Prognoza

Raport powstał 5 godziny i 26 minut temu, godzina 17:13 UTC
Prognoza ważna od 16 godzina 18 UTC do 18 godzina 00 UTC
Wiatr 18 kt od wschodnio-północny wschód
Widzialność 10 km lub więcej
Mało chmury na wysokości 1000 ft
Rozproszone chmury na wysokości 2000 ft

TAF: ROIG 161713Z 1618/1800 07018KT 9999 FEW010 SCT020

Obserwacja i prognoza pogody dla ponad 4000 lotnisk (raport METAR i TAF).

Dostępne stacje oznaczono żółtymi i czerwonymi punktami na mapie.

Najedź kursorem aby zobaczyć nazwę stacji.

Kliknij aby zobaczyć obserwacje i prognozy pogody.

Aby zmienić mapę: kliknij na zielony przycisk z czarnym krzyżykiem, aby powiększyć; na zielony przycisk z myślnikiem, aby pomniejszyć; na zielone strzałki, aby przejść do map sąsiednich.


METAR-TAF: